Time;durP1;ratioP1;P1;durP2;ratioP2;P2;SDS_P1;SDS_P2;PMS_P1;PMS_P2;Temp;Humidity;BMP_temperature;BMP_pressure;BME280_temperature;BME280_humidity;BME280_pressure;Samples;Min_cycle;Max_cycle;Signal;HPM_P1;HPM_P2
2021/06/08 00:02:07;;;;;;;2.83;1.27;;;14.70;99.90;;;;;;5095711;28;20048;-83
2021/06/08 00:04:35;;;;;;;4.43;1.92;;;14.70;99.90;;;;;;5095486;28;20047;-83
2021/06/08 00:07:01;;;;;;;2.30;1.75;;;14.60;99.90;;;;;;5095731;28;20048;-83
2021/06/08 00:09:28;;;;;;;4.53;1.80;;;14.60;99.90;;;;;;5094831;28;20350;-83
2021/06/08 00:11:54;;;;;;;1.75;1.15;;;14.60;99.90;;;;;;5095614;28;20051;-82
2021/06/08 00:14:21;;;;;;;8.05;1.90;;;14.50;99.90;;;;;;5095295;28;20044;-82
2021/06/08 00:16:50;;;;;;;3.20;1.42;;;14.50;99.90;;;;;;5095375;28;20395;-82
2021/06/08 00:19:16;;;;;;;3.95;1.58;;;14.40;99.90;;;;;;5078022;28;20452;-82
2021/06/08 00:21:44;;;;;;;2.50;1.50;;;14.40;99.90;;;;;;5095493;28;20105;-83
2021/06/08 00:24:11;;;;;;;5.07;1.55;;;14.30;99.90;;;;;;5094754;28;20052;-81
2021/06/08 00:26:37;;;;;;;2.80;1.13;;;14.30;99.90;;;;;;5093544;28;20059;-82
2021/06/08 00:29:04;;;;;;;5.60;1.48;;;14.30;99.90;;;;;;5094752;28;20048;-83
2021/06/08 00:31:31;;;;;;;4.10;1.50;;;14.20;99.90;;;;;;5095244;28;20054;-83
2021/06/08 00:33:57;;;;;;;4.90;1.35;;;14.30;99.90;;;;;;5094975;28;20044;-83
2021/06/08 00:36:24;;;;;;;3.47;1.35;;;14.20;99.90;;;;;;5095384;28;20384;-83
2021/06/08 00:38:52;;;;;;;3.50;1.77;;;14.30;99.90;;;;;;5095014;28;20048;-83
2021/06/08 00:41:20;;;;;;;4.85;1.63;;;14.30;99.90;;;;;;5094807;28;20044;-83
2021/06/08 00:43:46;;;;;;;4.25;1.77;;;14.30;99.90;;;;;;5095054;28;20142;-83
2021/06/08 00:46:13;;;;;;;4.32;1.70;;;14.30;99.90;;;;;;5094989;28;20044;-83
2021/06/08 00:48:39;;;;;;;4.03;1.65;;;14.40;99.90;;;;;;5095009;28;20044;-83
2021/06/08 00:51:06;;;;;;;2.78;1.58;;;14.40;99.90;;;;;;5095111;28;20048;-83
2021/06/08 00:53:32;;;;;;;4.47;1.48;;;14.40;99.90;;;;;;5094812;28;20048;-83
2021/06/08 00:56:01;;;;;;;4.70;1.10;;;14.40;99.90;;;;;;5094841;28;20453;-83
2021/06/08 00:58:27;;;;;;;3.45;1.58;;;14.40;99.90;;;;;;5094862;28;20071;-83
2021/06/08 01:00:54;;;;;;;2.20;1.05;;;14.40;99.90;;;;;;5094748;28;20052;-83
2021/06/08 01:03:21;;;;;;;4.88;1.30;;;14.40;99.90;;;;;;5094752;28;20048;-82
2021/06/08 01:05:47;;;;;;;2.40;1.55;;;14.30;99.90;;;;;;5094734;28;20054;-83
2021/06/08 01:08:14;;;;;;;3.10;1.27;;;14.20;99.90;;;;;;5095240;28;20056;-83
2021/06/08 01:10:40;;;;;;;3.95;1.38;;;14.20;99.90;;;;;;5094709;28;20044;-83
2021/06/08 01:13:08;;;;;;;6.25;1.95;;;14.10;99.90;;;;;;5095003;28;20070;-83
2021/06/08 01:15:35;;;;;;;;;;;14.10;99.90;;;;;;5094993;28;20051;-84
2021/06/08 01:18:01;;;;;;;;;;;14.00;99.90;;;;;;5095086;28;19924;-83
2021/06/08 01:20:28;;;;;;;;;;;13.90;99.90;;;;;;5095367;28;20263;-83
2021/06/08 01:22:55;;;;;;;;;;;13.90;99.90;;;;;;5093799;28;19924;-83
2021/06/08 01:25:22;;;;;;;;;;;13.80;99.90;;;;;;5093709;28;19919;-84
2021/06/08 01:27:48;;;;;;;;;;;13.70;99.90;;;;;;5093275;28;19920;-83
2021/06/08 01:30:15;;;;;;;;;;;13.70;99.90;;;;;;5094636;28;19930;-83
2021/06/08 01:32:42;;;;;;;;;;;13.60;99.90;;;;;;5095025;28;19957;-84
2021/06/08 01:35:09;;;;;;;;;;;13.60;99.90;;;;;;5095042;28;20247;-83
2021/06/08 01:37:37;;;;;;;;;;;13.60;99.90;;;;;;5095008;28;19938;-83
2021/06/08 01:40:06;;;;;;;;;;;13.50;99.90;;;;;;5094740;28;20313;-84
2021/06/08 01:42:32;;;;;;;;;;;13.50;99.90;;;;;;5095242;28;19920;-84
2021/06/08 01:44:59;;;;;;;;;;;13.40;99.90;;;;;;5094840;28;20233;-84
2021/06/08 01:47:25;;;;;;;;;;;13.40;99.90;;;;;;5094766;28;19920;-83
2021/06/08 01:49:51;;;;;;;;;;;13.30;99.90;;;;;;5095188;28;19920;-84
2021/06/08 01:52:19;;;;;;;;;;;13.30;99.90;;;;;;5096762;28;19981;-84
2021/06/08 01:54:49;;;;;;;;;;;13.20;99.90;;;;;;5098540;28;20416;-84
2021/06/08 01:57:18;;;;;;;;;;;13.20;99.90;;;;;;5098494;28;19920;-83
2021/06/08 01:59:51;;;;;;;;;;;13.10;99.90;;;;;;5098503;28;20312;-84
2021/06/08 02:02:18;;;;;;;;;;;13.10;99.90;;;;;;5098475;28;19920;-84
2021/06/08 02:04:45;;;;;;;;;;;13.10;99.90;;;;;;5098635;28;19924;-84
2021/06/08 02:07:14;;;;;;;;;;;13.10;99.90;;;;;;5098849;28;19919;-84
2021/06/08 02:09:42;;;;;;;;;;;13.10;99.90;;;;;;5098321;28;19930;-84
2021/06/08 02:12:11;;;;;;;;;;;13.10;99.90;;;;;;5098269;28;20340;-84
2021/06/08 02:14:40;;;;;;;;;;;13.00;99.90;;;;;;5098343;28;19938;-84
2021/06/08 02:17:08;;;;;;;;;;;13.00;99.90;;;;;;5098142;28;19930;-84
2021/06/08 02:19:34;;;;;;;;;;;13.00;99.90;;;;;;5098186;28;19920;-84
2021/06/08 02:22:01;;;;;;;;;;;13.00;99.90;;;;;;5098195;28;19930;-85
2021/06/08 02:24:28;;;;;;;;;;;12.90;99.90;;;;;;5098319;28;19930;-84
2021/06/08 02:26:56;;;;;;;;;;;12.90;99.90;;;;;;5098153;28;19947;-84
2021/06/08 02:29:23;;;;;;;;;;;12.90;99.90;;;;;;5098213;28;19957;-84
2021/06/08 02:31:50;;;;;;;;;;;12.80;99.90;;;;;;5098428;28;19939;-85
2021/06/08 02:34:17;;;;;;;;;;;12.80;99.90;;;;;;5097801;28;20356;-85
2021/06/08 02:36:43;;;;;;;;;;;12.70;99.90;;;;;;5097982;28;19919;-84
2021/06/08 02:39:09;;;;;;;;;;;12.70;99.90;;;;;;5097719;28;20347;-85
2021/06/08 02:41:36;;;;;;;;;;;12.60;99.90;;;;;;5097676;28;19920;-85
2021/06/08 02:44:02;;;;;;;;;;;12.50;99.90;;;;;;5097779;28;19920;-85
2021/06/08 02:46:29;;;;;;;;;;;12.50;99.90;;;;;;5097966;28;19920;-84
2021/06/08 02:48:57;;;;;;;;;;;12.50;99.90;;;;;;5097683;28;20372;-85
2021/06/08 02:51:23;;;;;;;;;;;12.40;99.90;;;;;;5097462;28;19924;-84
2021/06/08 02:53:50;;;;;;;;;;;12.40;99.90;;;;;;5097447;28;19919;-85
2021/06/08 02:56:16;;;;;;;;;;;12.40;99.90;;;;;;5097298;28;19919;-85
2021/06/08 02:58:43;;;;;;;;;;;12.40;99.90;;;;;;5097121;28;19927;-83
2021/06/08 03:01:09;;;;;;;;;;;12.40;99.90;;;;;;5097484;28;19920;-85
2021/06/08 03:03:36;;;;;;;;;;;12.30;99.90;;;;;;5096992;28;20290;-85
2021/06/08 03:06:05;;;;;;;;;;;12.30;99.90;;;;;;5097170;28;20328;-84
2021/06/08 03:08:33;;;;;;;;;;;12.20;99.90;;;;;;5097424;28;20336;-84
2021/06/08 03:10:59;;;;;;;;;;;12.20;99.90;;;;;;5097057;28;19980;-85
2021/06/08 03:13:25;;;;;;;;;;;12.20;99.90;;;;;;5096975;28;20370;-85
2021/06/08 03:15:52;;;;;;;;;;;12.20;99.90;;;;;;5097065;28;19927;-85
2021/06/08 03:18:20;;;;;;;;;;;12.20;99.90;;;;;;5096984;28;19928;-85
2021/06/08 03:20:47;;;;;;;;;;;12.10;99.90;;;;;;5096957;28;19920;-86
2021/06/08 03:23:16;;;;;;;;;;;12.10;99.90;;;;;;5096769;28;19920;-85
2021/06/08 03:25:42;;;;;;;;;;;12.10;99.90;;;;;;5097057;28;19924;-85
2021/06/08 03:28:09;;;;;;;;;;;12.10;99.90;;;;;;5096671;28;19953;-85
2021/06/08 03:30:35;;;;;;;;;;;12.10;99.90;;;;;;5096850;28;20271;-85
2021/06/08 03:33:02;;;;;;;;;;;12.10;99.90;;;;;;5096601;28;20335;-85
2021/06/08 03:35:28;;;;;;;;;;;12.00;99.90;;;;;;5096605;28;19926;-85
2021/06/08 03:37:54;;;;;;;;;;;12.00;99.90;;;;;;5096610;28;19920;-85
2021/06/08 03:40:22;;;;;;;;;;;12.00;99.90;;;;;;5096883;28;19920;-85
2021/06/08 03:42:49;;;;;;;;;;;12.00;99.90;;;;;;5096453;28;19920;-85
2021/06/08 03:45:15;;;;;;;;;;;12.00;99.90;;;;;;5096565;28;19931;-85
2021/06/08 03:47:42;;;;;;;;;;;12.00;99.90;;;;;;5096422;28;20222;-85
2021/06/08 03:50:09;;;;;;;;;;;11.90;99.90;;;;;;5096374;28;19920;-85
2021/06/08 03:52:35;;;;;;;;;;;11.90;99.90;;;;;;5096310;28;20003;-85
2021/06/08 03:55:02;;;;;;;;;;;11.90;99.90;;;;;;5096414;28;19920;-85
2021/06/08 03:57:32;;;;;;;;;;;11.90;99.90;;;;;;5096060;28;20346;-85
2021/06/08 03:59:58;;;;;;;;;;;11.90;99.90;;;;;;5096401;28;19929;-85
2021/06/08 04:02:25;;;;;;;;;;;11.90;99.90;;;;;;5096209;28;19968;-85
2021/06/08 04:04:51;;;;;;;;;;;11.90;99.90;;;;;;5096351;28;19920;-85
2021/06/08 04:07:18;;;;;;;;;;;11.90;99.90;;;;;;5096104;28;20259;-85
2021/06/08 04:09:46;;;;;;;;;;;11.90;99.90;;;;;;5096125;28;19930;-85
2021/06/08 04:12:12;;;;;;;;;;;11.90;99.90;;;;;;5096044;28;19930;-85
2021/06/08 04:14:40;;;;;;;;;;;11.90;99.90;;;;;;5095357;28;19928;-85
2021/06/08 04:17:06;;;;;;;;;;;11.90;99.90;;;;;;5095884;28;20244;-85
2021/06/08 04:19:33;;;;;;;;;;;11.80;99.90;;;;;;5096127;28;19920;-85
2021/06/08 04:21:59;;;;;;;;;;;11.80;99.90;;;;;;5095700;28;19919;-85
2021/06/08 04:24:25;;;;;;;;;;;11.80;99.90;;;;;;5096002;28;19924;-85
2021/06/08 04:26:52;;;;;;;;;;;11.90;99.90;;;;;;5095719;28;20277;-85
2021/06/08 04:29:18;;;;;;;;;;;11.90;99.90;;;;;;5095648;28;20271;-84
2021/06/08 04:31:46;;;;;;;;;;;11.90;99.90;;;;;;5095614;28;20335;-85
2021/06/08 04:34:12;;;;;;;;;;;11.90;99.90;;;;;;5095596;28;19920;-85
2021/06/08 04:36:38;;;;;;;;;;;12.00;99.90;;;;;;5095433;28;19924;-85
2021/06/08 04:39:05;;;;;;;;;;;12.00;99.90;;;;;;5095735;28;19920;-85
2021/06/08 04:41:31;;;;;;;;;;;12.10;99.90;;;;;;5095654;28;19920;-85
2021/06/08 04:43:57;;;;;;;;;;;12.10;99.90;;;;;;5095540;28;19946;-85
2021/06/08 04:46:23;;;;;;;;;;;12.20;99.90;;;;;;5095459;28;20325;-86
2021/06/08 04:48:51;;;;;;;;;;;12.20;99.90;;;;;;5095440;28;20331;-85
2021/06/08 04:51:19;;;;;;;;;;;12.30;99.90;;;;;;5095386;28;19920;-85
2021/06/08 04:53:45;;;;;;;;;;;12.30;99.90;;;;;;5095370;28;19921;-85
2021/06/08 04:56:11;;;;;;;;;;;12.40;99.90;;;;;;5095330;28;19920;-85
2021/06/08 04:58:38;;;;;;;;;;;12.40;99.90;;;;;;5095022;28;19920;-85
2021/06/08 05:01:06;;;;;;;;;;;12.50;99.90;;;;;;5095340;28;19920;-85
2021/06/08 05:03:34;;;;;;;;;;;12.50;99.90;;;;;;5095209;28;20011;-85
2021/06/08 05:06:02;;;;;;;;;;;12.60;99.90;;;;;;5095117;28;20268;-85
2021/06/08 05:08:29;;;;;;;;;;;12.60;99.90;;;;;;5095146;28;19920;-85
2021/06/08 05:10:58;;;;;;;;;;;12.60;99.90;;;;;;5095387;28;19924;-85
2021/06/08 05:13:25;;;;;;;;;;;12.60;99.90;;;;;;5095230;28;20313;-85
2021/06/08 05:15:51;;;;;;;;;;;12.60;99.90;;;;;;5095076;28;19969;-84
2021/06/08 05:18:17;;;;;;;;;;;12.60;99.90;;;;;;5095030;28;19920;-85
2021/06/08 05:20:44;;;;;;;;;;;12.60;99.90;;;;;;5095360;28;19928;-85
2021/06/08 05:23:12;;;;;;;;;;;12.60;99.90;;;;;;5095196;28;19943;-85
2021/06/08 05:25:39;;;;;;;;;;;12.60;99.90;;;;;;5095966;28;20351;-86
2021/06/08 05:28:06;;;;;;;;;;;12.60;99.90;;;;;;5099097;28;19934;-86
2021/06/08 05:30:32;;;;;;;;;;;12.70;99.90;;;;;;5099098;28;19920;-86
2021/06/08 05:32:58;;;;;;;;;;;12.70;99.90;;;;;;5098991;28;19919;-85
2021/06/08 05:35:25;;;;;;;;;;;12.80;99.90;;;;;;5099118;28;19928;-86
2021/06/08 05:37:51;;;;;;;;;;;12.90;99.90;;;;;;5099071;28;19998;-85
2021/06/08 05:40:22;;;;;;;;;;;13.10;99.90;;;;;;5099025;28;19920;-86
2021/06/08 05:42:48;;;;;;;;;;;13.30;99.90;;;;;;5098904;28;19931;-86
2021/06/08 05:45:15;;;;;;;;;;;13.50;99.90;;;;;;5098779;28;19931;-85
2021/06/08 05:47:41;;;;;;;;;;;13.70;99.90;;;;;;5098721;28;20000;-86
2021/06/08 05:50:08;;;;;;;;;;;13.90;99.90;;;;;;5099190;28;19930;-85
2021/06/08 05:52:35;;;;;;;;;;;14.20;99.90;;;;;;5098585;28;19981;-86
2021/06/08 05:55:01;;;;;;;;;;;14.40;99.90;;;;;;5098476;28;19938;-85
2021/06/08 05:57:29;;;;;;;;;;;14.60;99.90;;;;;;5098493;28;19920;-85
2021/06/08 05:59:55;;;;;;;;;;;14.80;99.90;;;;;;5098544;28;19923;-85
2021/06/08 06:02:22;;;;;;;;;;;14.90;99.90;;;;;;5098473;28;19930;-85
2021/06/08 06:04:48;;;;;;;;;;;15.00;99.90;;;;;;5098438;28;19931;-84
2021/06/08 06:07:14;;;;;;;;;;;15.00;99.90;;;;;;5098535;28;19926;-85
2021/06/08 06:09:41;;;;;;;;;;;15.10;99.90;;;;;;5098417;28;19923;-85
2021/06/08 06:12:08;;;;;;;;;;;15.10;99.90;;;;;;5098281;28;19920;-84
2021/06/08 06:14:36;;;;;;;;;;;15.10;99.90;;;;;;5098249;28;19920;-85
2021/06/08 06:17:03;;;;;;;;;;;15.20;99.90;;;;;;5098436;28;19935;-84
2021/06/08 06:19:29;;;;;;;;;;;15.30;99.90;;;;;;5098300;28;19945;-84
2021/06/08 06:21:56;;;;;;;;;;;15.30;99.90;;;;;;5098385;28;19920;-84
2021/06/08 06:24:22;;;;;;;;;;;15.40;99.90;;;;;;5098030;28;20362;-84
2021/06/08 06:26:48;;;;;;;;;;;15.40;99.90;;;;;;5098070;28;19920;-84
2021/06/08 06:29:15;;;;;;;;;;;15.60;99.90;;;;;;5097982;28;19928;-83
2021/06/08 06:31:45;;;;;;;3.10;1.60;;;15.80;99.90;;;;;;5097216;28;20833;-83
2021/06/08 06:34:12;;;;;;;3.38;1.83;;;16.10;99.90;;;;;;5097466;28;20063;-82
2021/06/08 06:36:38;;;;;;;3.67;1.20;;;16.50;99.90;;;;;;5097276;28;20040;-83
2021/06/08 06:39:06;;;;;;;4.85;1.50;;;17.00;99.90;;;;;;5096998;28;20052;-83
2021/06/08 06:41:34;;;;;;;3.53;1.17;;;17.70;99.90;;;;;;5097496;28;20051;-83
2021/06/08 06:44:00;;;;;;;3.55;1.27;;;18.60;99.90;;;;;;5097345;28;20048;-83
2021/06/08 06:46:31;;;;;;;1.42;0.82;;;20.00;99.90;;;;;;5097299;28;20517;-83
2021/06/08 06:48:59;;;;;;;2.97;1.13;;;21.70;99.90;;;;;;5097086;28;20048;-83
2021/06/08 06:51:25;;;;;;;1.38;1.23;;;22.00;99.90;;;;;;5097162;28;20055;-83
2021/06/08 06:53:54;;;;;;;1.33;0.95;;;22.20;99.90;;;;;;5097241;28;20169;-83
2021/06/08 06:56:21;;;;;;;3.65;1.33;;;22.10;99.70;;;;;;5097113;28;20066;-83
2021/06/08 06:58:48;;;;;;;1.95;0.80;;;22.00;99.90;;;;;;5097037;28;20091;-83
2021/06/08 07:01:15;;;;;;;1.95;0.98;;;21.90;99.90;;;;;;5096914;28;20059;-82
2021/06/08 07:03:41;;;;;;;1.67;1.20;;;21.70;99.90;;;;;;5097089;28;20441;-83
2021/06/08 07:06:09;;;;;;;1.98;1.10;;;21.50;99.90;;;;;;5097061;28;20052;-83
2021/06/08 07:08:36;;;;;;;3.13;1.35;;;22.40;97.90;;;;;;5096735;28;20055;-83
2021/06/08 07:11:02;;;;;;;1.88;0.60;;;23.50;99.90;;;;;;5096791;28;20044;-83
2021/06/08 07:13:29;;;;;;;2.97;0.80;;;24.00;94.80;;;;;;5096620;28;20054;-82
2021/06/08 07:15:55;;;;;;;1.90;1.10;;;23.70;88.80;;;;;;5096816;28;20066;-83
2021/06/08 07:18:22;;;;;;;2.45;0.95;;;23.50;84.60;;;;;;5096875;28;20052;-83
2021/06/08 07:20:49;;;;;;;4.32;1.02;;;23.60;91.50;;;;;;5096675;28;20060;-83
2021/06/08 07:23:18;;;;;;;1.75;1.10;;;23.80;77.90;;;;;;5096496;28;20349;-83
2021/06/08 07:25:45;;;;;;;1.20;0.70;;;23.80;80.90;;;;;;5096769;28;20054;-83
2021/06/08 07:28:11;;;;;;;2.20;1.17;;;23.90;79.70;;;;;;5096420;28;20134;-83
2021/06/08 07:30:39;;;;;;;2.67;1.05;;;23.60;78.70;;;;;;5096530;28;20063;-83
2021/06/08 07:33:10;;;;;;;2.35;0.77;;;23.00;78.60;;;;;;5096369;28;20050;-83
2021/06/08 07:35:38;;;;;;;2.45;1.10;;;22.20;85.40;;;;;;5096101;28;20494;-83
2021/06/08 07:38:08;;;;;;;1.95;1.33;;;21.90;91.70;;;;;;5096311;28;20392;-83
2021/06/08 07:40:37;;;;;;;2.25;1.05;;;21.60;93.00;;;;;;5096323;28;20063;-83
2021/06/08 07:43:04;;;;;;;2.22;1.35;;;21.40;94.20;;;;;;5096258;28;20048;-83
2021/06/08 07:45:33;;;;;;;3.35;0.80;;;21.40;95.40;;;;;;5096218;28;20430;-83
2021/06/08 07:48:00;;;;;;;2.00;1.33;;;21.40;94.50;;;;;;5095969;28;20139;-83
2021/06/08 07:50:29;;;;;;;2.45;0.95;;;21.40;94.10;;;;;;5094910;28;20112;-83
2021/06/08 07:52:56;;;;;;;1.77;1.33;;;21.30;95.10;;;;;;5095849;28;20058;-83
2021/06/08 07:55:23;;;;;;;2.22;1.10;;;21.10;97.10;;;;;;5095939;28;20109;-82
2021/06/08 07:57:51;;;;;;;3.60;1.52;;;20.90;98.30;;;;;;5095666;28;20056;-83
2021/06/08 08:00:18;;;;;;;1.85;1.10;;;21.00;97.50;;;;;;5095882;28;20467;-83
2021/06/08 08:02:46;;;;;;;4.40;1.58;;;21.20;97.80;;;;;;5095729;28;20054;-83
2021/06/08 08:05:15;;;;;;;3.10;1.42;;;21.70;95.90;;;;;;5095743;28;20135;-83
2021/06/08 08:07:43;;;;;;;3.47;1.67;;;22.80;94.00;;;;;;5095471;28;20048;-83
2021/06/08 08:10:10;;;;;;;3.20;1.60;;;24.30;81.40;;;;;;5095462;28;20052;-83
2021/06/08 08:12:37;;;;;;;2.55;1.50;;;25.00;74.60;;;;;;5095403;28;20460;-83
2021/06/08 08:15:07;;;;;;;3.28;1.20;;;24.80;67.90;;;;;;5095283;28;20047;-83
2021/06/08 08:17:33;;;;;;;2.10;1.33;;;24.50;70.10;;;;;;5095516;28;20044;-83
2021/06/08 08:20:00;;;;;;;2.83;1.40;;;24.00;69.80;;;;;;5096097;28;20109;-83
2021/06/08 08:22:27;;;;;;;2.17;0.65;;;23.50;71.10;;;;;;5095287;28;20063;-83
2021/06/08 08:24:54;;;;;;;4.63;1.10;;;23.10;72.00;;;;;;5095317;28;20054;-83
2021/06/08 08:27:20;;;;;;;1.63;0.90;;;22.60;74.30;;;;;;5095674;28;20047;-83
2021/06/08 08:29:47;;;;;;;1.25;0.73;;;22.50;79.40;;;;;;5095350;28;20052;-83
2021/06/08 08:32:15;;;;;;;1.70;0.80;;;23.30;74.90;;;;;;5095249;28;20452;-83
2021/06/08 08:34:42;;;;;;;4.30;0.80;;;23.70;72.40;;;;;;5095277;28;20383;-83
2021/06/08 08:37:09;;;;;;;2.95;0.85;;;24.90;69.50;;;;;;5095045;28;20044;-83
2021/06/08 08:39:36;;;;;;;2.25;0.80;;;26.40;62.40;;;;;;5095313;28;20047;-83
2021/06/08 08:42:05;;;;;;;1.83;0.85;;;27.10;59.20;;;;;;5095024;28;20479;-83
2021/06/08 08:44:31;;;;;;;1.20;0.85;;;27.40;57.30;;;;;;5095130;28;20052;-83
2021/06/08 08:46:58;;;;;;;2.58;0.82;;;26.50;56.50;;;;;;5094979;28;20460;-83
2021/06/08 08:49:26;;;;;;;1.70;1.23;;;25.00;60.50;;;;;;5095325;28;20051;-83
2021/06/08 08:51:53;;;;;;;5.38;1.15;;;23.70;62.80;;;;;;5095105;28;20127;-84
2021/06/08 08:54:20;;;;;;;0.95;0.60;;;22.70;68.00;;;;;;5094976;28;20058;-83
2021/06/08 08:56:47;;;;;;;1.20;0.80;;;22.00;70.80;;;;;;5094871;28;20048;-83
2021/06/08 08:59:15;;;;;;;1.60;0.80;;;21.40;78.90;;;;;;5094709;28;20092;-83
2021/06/08 09:01:43;;;;;;;1.80;0.90;;;21.00;88.90;;;;;;5094583;28;20052;-83
2021/06/08 09:04:10;;;;;;;3.42;1.67;;;20.60;89.00;;;;;;5094750;28;20105;-82
2021/06/08 09:06:38;;;;;;;2.47;1.10;;;20.30;93.20;;;;;;5094994;28;20058;-83
2021/06/08 09:09:05;;;;;;;1.73;0.90;;;20.10;97.30;;;;;;5094962;28;20064;-83
2021/06/08 09:11:36;;;;;;;2.58;1.00;;;20.00;97.90;;;;;;5094677;28;20056;-83
2021/06/08 09:14:03;;;;;;;;;;;19.90;99.30;;;;;;5095107;28;20467;-83
2021/06/08 09:16:29;;;;;;;;;;;19.80;98.70;;;;;;5095021;28;19920;-83
2021/06/08 09:18:56;;;;;;;1.50;1.13;;;19.70;98.70;;;;;;5094968;28;20425;-83
2021/06/08 09:21:24;;;;;;;2.08;0.80;;;19.60;98.70;;;;;;5094707;28;20059;-82
2021/06/08 09:23:52;;;;;;;1.33;0.82;;;19.50;97.50;;;;;;5094675;28;20375;-83
2021/06/08 09:26:18;;;;;;;4.07;1.52;;;19.40;99.90;;;;;;5094615;28;20452;-82
2021/06/08 09:28:45;;;;;;;3.33;1.25;;;19.30;99.60;;;;;;5094692;28;20044;-82
2021/06/08 09:31:13;;;;;;;4.10;1.52;;;19.20;98.80;;;;;;5094438;28;20074;-83
2021/06/08 09:33:40;;;;;;;2.15;1.13;;;19.10;99.90;;;;;;5094428;28;20135;-83
2021/06/08 09:36:08;;;;;;;3.72;1.83;;;19.00;99.90;;;;;;5093908;28;20059;-84
2021/06/08 09:38:43;;;;;;;3.78;1.60;;;19.00;99.90;;;;;;5094837;28;20044;-84
2021/06/08 09:41:27;;;;;;;;;;;18.90;99.90;;;;;;5095012;28;20052;-84
2021/06/08 09:44:02;;;;;;;;;;;18.90;99.90;;;;;;5094778;28;20347;-84
2021/06/08 09:46:29;;;;;;;;;;;18.90;99.90;;;;;;5094847;28;19930;-84
2021/06/08 09:48:56;;;;;;;;;;;18.90;99.90;;;;;;5094643;28;19924;-84
2021/06/08 09:51:22;;;;;;;;;;;18.90;99.90;;;;;;5094933;28;19934;-86
2021/06/08 09:53:49;;;;;;;;;;;18.90;99.90;;;;;;5094750;28;19954;-81
2021/06/08 09:56:15;;;;;;;;;;;18.90;99.90;;;;;;5094520;28;19924;-81
2021/06/08 09:58:45;;;;;;;;;;;18.90;99.90;;;;;;5094785;28;19928;-81
2021/06/08 10:01:19;;;;;;;;;;;18.90;99.90;;;;;;5094757;28;19924;-81
2021/06/08 10:03:45;;;;;;;;;;;18.80;99.90;;;;;;5094666;28;19974;-80
2021/06/08 10:06:12;;;;;;;;;;;18.90;99.90;;;;;;5094652;28;19997;-81
2021/06/08 10:08:39;;;;;;;;;;;18.90;99.90;;;;;;5094527;28;19924;-81
2021/06/08 10:11:14;;;;;;;;;;;19.00;99.90;;;;;;5094521;28;19932;-82
2021/06/08 10:13:41;;;;;;;;;;;19.00;99.90;;;;;;5097223;28;19928;-81
2021/06/08 10:16:08;;;;;;;;;;;19.10;99.90;;;;;;5098284;28;19928;-81
2021/06/08 10:18:42;;;;;;;;;;;19.10;99.90;;;;;;5098116;28;20286;-81
2021/06/08 10:21:09;;;;;;;;;;;19.10;99.90;;;;;;5098183;28;19957;-85
2021/06/08 10:23:35;;;;;;;;;;;19.20;99.90;;;;;;5098086;28;19931;-81
2021/06/08 10:26:03;;;;;;;;;;;19.20;99.90;;;;;;5095361;28;20405;-80
2021/06/08 10:28:29;;;;;;;;;;;19.10;99.90;;;;;;5097597;28;19925;-81
2021/06/08 10:30:56;;;;;;;;;;;19.20;99.90;;;;;;5098004;28;19924;-82
2021/06/08 10:33:22;;;;;;;;;;;19.20;99.90;;;;;;5097958;28;19932;-81
2021/06/08 10:35:50;;;;;;;;;;;19.30;99.90;;;;;;5097818;28;19924;-81
2021/06/08 10:38:17;;;;;;;;;;;19.30;99.90;;;;;;5097940;28;19980;-81
2021/06/08 10:40:43;;;;;;;;;;;19.30;99.90;;;;;;5097992;28;19924;-81
2021/06/08 10:43:13;;;;;;;;;;;19.30;99.90;;;;;;5097718;28;20340;-81
2021/06/08 10:45:39;;;;;;;;;;;19.30;99.90;;;;;;5097837;28;20014;-81
2021/06/08 10:48:06;;;;;;;;;;;19.40;99.90;;;;;;5096631;28;21024;-81
2021/06/08 10:50:33;;;;;;;;;;;19.40;99.90;;;;;;5097525;28;19924;-82
2021/06/08 10:53:01;;;;;;;;;;;19.40;99.90;;;;;;5097729;28;19986;-82
2021/06/08 10:55:28;;;;;;;;;;;19.40;99.90;;;;;;5097600;28;20282;-81
2021/06/08 10:57:54;;;;;;;;;;;19.30;99.40;;;;;;5077281;28;20261;-81
2021/06/08 11:00:44;;;;;;;;;;;19.30;96.70;;;;;;5077274;28;20322;-82
2021/06/08 11:03:11;;;;;;;;;;;19.20;99.60;;;;;;5061778;28;20364;-81
2021/06/08 11:05:48;;;;;;;;;;;19.30;99.90;;;;;;5077238;28;19924;-82
2021/06/08 11:08:16;;;;;;;;;;;19.30;99.90;;;;;;5077217;28;19924;-81
2021/06/08 11:10:53;;;;;;;;;;;19.30;98.70;;;;;;5077335;28;19924;-82
2021/06/08 11:13:38;;;;;;;;;;;19.40;99.90;;;;;;5076940;28;19932;-81
2021/06/08 11:16:22;;;;;;;;;;;19.40;99.90;;;;;;5076729;28;19931;-82
2021/06/08 11:18:48;;;;;;;;;;;19.40;99.90;;;;;;5076499;28;20221;-81
2021/06/08 11:21:24;;;;;;;;;;;19.50;99.90;;;;;;5076746;28;20366;-81
2021/06/08 11:23:54;;;;;;;;;;;19.50;99.90;;;;;;5076499;28;20259;-81
2021/06/08 11:26:44;;;;;;;;;;;19.50;99.90;;;;;;5076527;28;20307;-81
2021/06/08 11:29:11;;;;;;;;;;;19.50;99.90;;;;;;5076814;28;19938;-81
2021/06/08 11:31:49;;;;;;;;;;;19.40;99.90;;;;;;5076594;28;19928;-81
2021/06/08 11:34:15;;;;;;;;;;;19.50;99.90;;;;;;5076598;28;19936;-81
2021/06/08 11:36:42;;;;;;;;;;;19.50;99.90;;;;;;5075969;28;19935;-81
2021/06/08 11:39:30;;;;;;;;;;;19.50;99.90;;;;;;5076351;28;20005;-82
2021/06/08 11:41:56;;;;;;;;;;;19.50;95.20;;;;;;5076427;28;19928;-81
2021/06/08 11:44:23;;;;;;;;;;;19.50;98.20;;;;;;5076400;28;19935;-81
2021/06/08 11:46:53;;;;;;;;;;;19.50;98.90;;;;;;5076392;28;19924;-80
2021/06/08 11:49:19;;;;;;;;;;;19.50;97.90;;;;;;5076467;28;19924;-81
2021/06/08 11:51:47;;;;;;;;;;;19.60;94.30;;;;;;5076409;28;19924;-81
2021/06/08 11:54:15;;;;;;;;;;;19.60;97.40;;;;;;5076330;28;19990;-81
2021/06/08 11:56:43;;;;;;;;;;;19.60;97.10;;;;;;5076130;28;20310;-80
2021/06/08 11:59:09;;;;;;;;;;;19.60;92.30;;;;;;5076110;28;19924;-81
2021/06/08 12:01:36;;;;;;;;;;;19.50;94.50;;;;;;5075931;28;19924;-81
2021/06/08 12:04:03;;;;;;;;;;;19.50;97.20;;;;;;5076163;28;19932;-81
2021/06/08 12:06:44;;;;;;;;;;;19.50;98.60;;;;;;5075861;28;20413;-81
2021/06/08 12:09:11;;;;;;;;;;;19.60;98.50;;;;;;5075114;28;19942;-81
2021/06/08 12:11:37;;;;;;;;;;;19.60;95.20;;;;;;5075774;28;19963;-82
2021/06/08 12:14:08;;;;;;;;;;;19.70;93.90;;;;;;5075969;28;19924;-81
2021/06/08 12:16:34;;;;;;;;;;;19.70;94.00;;;;;;5075770;28;20398;-81
2021/06/08 12:19:06;;;;;;;;;;;19.80;93.20;;;;;;5075802;28;19925;-82
2021/06/08 12:21:32;;;;;;;;;;;19.70;91.50;;;;;;5075585;28;19925;-82
2021/06/08 12:23:59;;;;;;;;;;;19.80;90.80;;;;;;5075645;28;19932;-82
2021/06/08 12:26:25;;;;;;;;;;;19.80;82.50;;;;;;5075119;28;19925;-82
2021/06/08 12:29:01;;;;;;;;;;;19.80;78.60;;;;;;5075360;28;20260;-81
2021/06/08 12:31:29;;;;;;;;;;;19.80;83.70;;;;;;5075711;28;19924;-81
2021/06/08 12:33:56;;;;;;;;;;;19.90;87.90;;;;;;5075598;28;19924;-81
2021/06/08 12:36:23;;;;;;;;;;;19.90;88.50;;;;;;5074779;28;20311;-81
2021/06/08 12:38:50;;;;;;;;;;;19.90;90.30;;;;;;5075494;28;19924;-82
2021/06/08 12:41:16;;;;;;;;;;;19.90;85.70;;;;;;5075458;28;19931;-81
2021/06/08 12:43:43;;;;;;;;;;;20.00;87.30;;;;;;5075415;28;19924;-81
2021/06/08 12:46:09;;;;;;;;;;;20.00;88.70;;;;;;5075209;28;19958;-82
2021/06/08 12:48:37;;;;;;;;;;;20.00;89.20;;;;;;5075335;28;19925;-81
2021/06/08 12:51:11;;;;;;;;;;;20.00;89.10;;;;;;5075293;28;19935;-81
2021/06/08 12:53:38;;;;;;;;;;;20.00;87.70;;;;;;5075144;28;19928;-81
2021/06/08 12:56:04;;;;;;;;;;;20.00;86.20;;;;;;5074952;28;20238;-81
2021/06/08 12:58:31;;;;;;;;;;;20.10;88.50;;;;;;5074991;28;19928;-81
2021/06/08 13:00:57;;;;;;;;;;;20.10;80.20;;;;;;5075098;28;19928;-81
2021/06/08 13:03:23;;;;;;;;;;;20.10;83.90;;;;;;5075201;28;19928;-81
2021/06/08 13:05:51;;;;;;;;;;;20.00;82.60;;;;;;5074976;28;20303;-81
2021/06/08 13:08:17;;;;;;;;;;;20.00;85.70;;;;;;5075158;28;19929;-81
2021/06/08 13:10:44;;;;;;;;;;;20.10;87.60;;;;;;5075434;28;19925;-81
2021/06/08 13:13:10;;;;;;;;;;;20.10;90.90;;;;;;5075136;28;19951;-81
2021/06/08 13:15:38;;;;;;;;;;;20.20;92.10;;;;;;5074996;28;20445;-81
2021/06/08 13:18:05;;;;;;;;;;;20.20;91.90;;;;;;5074971;28;19932;-79
2021/06/08 13:20:32;;;;;;;;;;;20.30;90.40;;;;;;5074906;28;19978;-81
2021/06/08 13:22:59;;;;;;;;;;;20.30;82.10;;;;;;5074747;28;19935;-81
2021/06/08 13:25:26;;;;;;;;;;;20.40;86.50;;;;;;5074703;28;20310;-82
2021/06/08 13:27:53;;;;;;;;;;;20.40;82.10;;;;;;5074984;28;19932;-81
2021/06/08 13:30:19;;;;;;;;;;;20.40;71.90;;;;;;5074777;28;20318;-81
2021/06/08 13:32:54;;;;;;;;;;;20.40;75.80;;;;;;5074875;28;19925;-82
2021/06/08 13:35:20;;;;;;;;;;;20.40;80.10;;;;;;5074713;28;20264;-81
2021/06/08 13:37:47;;;;;;;;;;;20.30;72.10;;;;;;5074659;28;19925;-81
2021/06/08 13:40:16;;;;;;;;;;;20.40;76.90;;;;;;5074834;28;19935;-81
2021/06/08 13:42:47;;;;;;;;;;;20.40;78.40;;;;;;5074854;28;19925;-81
2021/06/08 13:45:13;;;;;;;;;;;20.50;79.20;;;;;;5073800;28;19942;-81
2021/06/08 13:47:40;;;;;;;;;;;20.50;72.10;;;;;;5075764;28;19989;-81
2021/06/08 13:50:09;;;;;;;;;;;20.50;73.00;;;;;;5078636;28;20393;-81